Time;durP1;ratioP1;P1;durP2;ratioP2;P2;SDS_P1;SDS_P2;PMS_P1;PMS_P2;Temp;Humidity;BMP_temperature;BMP_pressure;BME280_temperature;BME280_humidity;BME280_pressure;Samples;Min_cycle;Max_cycle;Signal;HPM_P1;HPM_P2
2022/10/01 00:01:54;;;;;;;;;;;13.40;67.80;;;;;;4992938;28;19922;-80
2022/10/01 00:04:19;;;;;;;;;;;13.50;67.50;;;;;;4991807;28;19925;-80
2022/10/01 00:06:45;;;;;;;;;;;13.50;67.60;;;;;;4967150;28;19921;-80
2022/10/01 00:09:10;;;;;;;;;;;13.50;67.90;;;;;;4990468;28;19918;-78
2022/10/01 00:11:36;;;;;;;;;;;13.50;67.90;;;;;;4972047;28;19913;-78
2022/10/01 00:14:01;;;;;;;;;;;13.50;68.10;;;;;;4977652;28;19917;-77
2022/10/01 00:16:28;;;;;;;;;;;13.60;68.10;;;;;;4971595;28;19928;-78
2022/10/01 00:18:53;;;;;;;;;;;13.50;68.50;;;;;;5008641;28;19918;-79
2022/10/01 00:21:20;;;;;;;;;;;13.30;68.90;;;;;;4991050;28;19914;-80
2022/10/01 00:23:46;;;;;;;;;;;13.50;68.00;;;;;;4973373;28;19913;-78
2022/10/01 00:26:12;;;;;;;;;;;13.40;67.90;;;;;;4988361;28;19996;-77
2022/10/01 00:28:38;;;;;;;;;;;13.50;68.60;;;;;;4982923;28;20000;-78
2022/10/01 00:31:05;;;;;;;;;;;13.40;68.90;;;;;;4987429;28;19968;-78
2022/10/01 00:33:31;;;;;;;;;;;13.50;68.50;;;;;;4974296;28;19929;-78
2022/10/01 00:35:57;;;;;;;;;;;13.60;67.80;;;;;;4985776;28;19915;-78
2022/10/01 00:38:23;;;;;;;;;;;13.60;67.70;;;;;;4989353;28;19956;-78
2022/10/01 00:40:49;;;;;;;;;;;13.60;67.80;;;;;;4964610;28;19918;-78
2022/10/01 00:43:22;;;;;;;;;;;13.60;67.50;;;;;;4980031;28;20016;-78
2022/10/01 00:45:48;;;;;;;;;;;13.70;67.30;;;;;;4979599;28;19914;-78
2022/10/01 00:48:13;;;;;;;;;;;13.70;67.60;;;;;;4974482;28;19983;-78
2022/10/01 00:50:39;;;;;;;;;;;13.60;67.60;;;;;;4968303;28;19913;-79
2022/10/01 00:53:11;;;;;;;;;;;13.60;67.40;;;;;;4991746;28;20469;-79
2022/10/01 00:55:42;;;;;;;;;;;13.60;68.10;;;;;;4981033;28;19914;-79
2022/10/01 00:58:09;;;;;;;;;;;13.60;68.60;;;;;;4971440;28;19929;-79
2022/10/01 01:00:35;;;;;;;;;;;13.50;69.50;;;;;;4983808;28;19926;-80
2022/10/01 01:03:00;;;;;;;;;;;13.50;70.50;;;;;;4992630;28;20370;-79
2022/10/01 01:05:26;;;;;;;;;;;13.50;70.70;;;;;;4967538;28;19921;-79
2022/10/01 01:07:52;;;;;;;;;;;13.30;72.50;;;;;;4975633;28;19918;-79
2022/10/01 01:10:22;;;;;;;;;;;13.20;73.70;;;;;;4989008;28;20015;-79
2022/10/01 01:12:54;;;;;;;;;;;13.10;73.80;;;;;;4992492;28;19913;-78
2022/10/01 01:15:30;;;;;;;;;;;13.00;75.40;;;;;;4966476;28;20378;-79
2022/10/01 01:18:14;;;;;;;;;;;12.90;76.10;;;;;;4992158;28;20298;-78
2022/10/01 01:20:58;;;;;;;;;;;12.70;77.10;;;;;;4983371;28;19924;-79
2022/10/01 01:23:40;;;;;;;;;;;12.60;78.30;;;;;;4975321;28;19964;-78
2022/10/01 01:26:06;;;;;;;;;;;12.60;78.70;;;;;;4980690;28;20478;-80
2022/10/01 01:28:33;;;;;;;;;;;12.50;79.70;;;;;;4991126;28;19917;-80
2022/10/01 01:31:09;;;;;;;;;;;12.50;80.00;;;;;;4992703;28;19914;-81
2022/10/01 01:33:37;;;;;;;;;;;12.50;79.90;;;;;;4977162;28;19923;-79
2022/10/01 01:36:06;;;;;;;;;;;12.50;79.90;;;;;;4970800;28;20008;-80
2022/10/01 01:38:36;;;;;;;;;;;12.40;80.00;;;;;;4973533;28;19929;-78
2022/10/01 01:41:03;;;;;;;;;;;12.40;81.30;;;;;;4986396;28;20305;-79
2022/10/01 01:43:31;;;;;;;;;;;12.40;81.50;;;;;;5010849;28;19922;-79
2022/10/01 01:45:59;;;;;;;;;;;12.40;81.60;;;;;;5008123;28;19936;-77
2022/10/01 01:48:25;;;;;;;;;;;12.40;81.10;;;;;;4995254;28;19918;-80
2022/10/01 01:50:54;;;;;;;;;;;12.40;81.60;;;;;;4977064;28;20932;-79
2022/10/01 01:53:20;;;;;;;;;;;12.20;81.70;;;;;;4977904;28;19921;-80
2022/10/01 01:55:47;;;;;;;;;;;12.20;82.80;;;;;;4983243;28;19914;-78
2022/10/01 01:58:12;;;;;;;;;;;12.20;82.70;;;;;;4997273;28;19921;-79
2022/10/01 02:00:38;;;;;;;;;;;12.20;82.60;;;;;;4988261;28;19917;-80
2022/10/01 02:03:05;;;;;;;;;;;12.30;82.10;;;;;;4973712;28;20389;-79
2022/10/01 02:05:36;;;;;;;;;;;12.40;81.90;;;;;;4969771;28;19914;-80
2022/10/01 02:08:01;;;;;;;;;;;12.30;82.60;;;;;;4985008;28;20186;-80
2022/10/01 02:10:46;;;;;;;;;;;12.20;82.10;;;;;;4965537;28;19972;-81
2022/10/01 02:13:23;;;;;;;;;;;12.10;82.20;;;;;;4979408;28;21290;-81
2022/10/01 02:15:58;;;;;;;;;;;12.10;82.50;;;;;;4982438;28;19933;-81
2022/10/01 02:18:29;;;;;;;;;;;12.10;82.90;;;;;;4980162;28;19921;-80
2022/10/01 02:21:05;;;;;;;;;;;12.10;82.70;;;;;;4981638;28;20024;-81
2022/10/01 02:23:35;;;;;;;;;;;12.10;82.70;;;;;;4980881;28;20001;-81
2022/10/01 02:26:03;;;;;;;;;;;12.10;84.00;;;;;;4983678;28;19914;-81
2022/10/01 02:28:30;;;;;;;;;;;12.10;83.40;;;;;;4980691;28;19914;-81
2022/10/01 02:30:56;;;;;;;;;;;12.00;83.40;;;;;;4981156;28;19921;-81
2022/10/01 02:33:24;;;;;;;;;;;12.10;83.10;;;;;;4963735;28;19929;-81
2022/10/01 02:35:50;;;;;;;;;;;12.00;82.90;;;;;;4966893;28;20437;-81
2022/10/01 02:38:18;;;;;;;;;;;12.00;83.10;;;;;;4974511;28;19921;-81
2022/10/01 02:40:44;;;;;;;;;;;12.00;83.70;;;;;;4972919;28;20004;-81
2022/10/01 02:43:21;;;;;;;;;;;12.10;83.70;;;;;;4983226;28;19918;-81
2022/10/01 02:45:50;;;;;;;;;;;12.10;83.90;;;;;;4971061;28;19914;-81
2022/10/01 02:48:16;;;;;;;;;;;12.00;83.90;;;;;;4986135;28;20382;-81
2022/10/01 02:50:50;;;;;;;;;;;11.90;84.30;;;;;;4972813;28;19921;-82
2022/10/01 02:53:26;;;;;;;;;;;11.80;84.00;;;;;;4969539;28;20393;-82
2022/10/01 02:55:52;;;;;;;;;;;11.90;84.10;;;;;;4981039;28;19918;-81
2022/10/01 02:58:18;;;;;;;;;;;11.80;84.00;;;;;;4996404;28;19925;-82
2022/10/01 03:00:44;;;;;;;;;;;11.80;84.70;;;;;;4994449;28;19949;-82
2022/10/01 03:03:09;;;;;;;;;;;11.70;85.20;;;;;;4977121;28;20512;-82
2022/10/01 03:05:35;;;;;;;;;;;11.70;85.30;;;;;;4992397;28;19921;-82
2022/10/01 03:08:00;;;;;;;;;;;11.70;85.50;;;;;;4972094;28;19918;-81
2022/10/01 03:10:26;;;;;;;;;;;11.80;85.50;;;;;;4977906;28;19914;-81
2022/10/01 03:12:51;;;;;;;;;;;11.80;85.00;;;;;;4985803;28;19918;-83
2022/10/01 03:15:20;;;;;;;;;;;11.70;85.50;;;;;;4966764;28;19917;-83
2022/10/01 03:17:50;;;;;;;;;;;11.60;85.60;;;;;;4985480;28;19917;-83
2022/10/01 03:20:15;;;;;;;;;;;11.70;85.50;;;;;;4989571;28;19926;-82
2022/10/01 03:22:43;;;;;;;;;;;11.60;86.60;;;;;;4989125;28;19914;-82
2022/10/01 03:25:08;;;;;;;;;;;11.60;86.30;;;;;;4986799;28;19924;-82
2022/10/01 03:27:34;;;;;;;;;;;11.60;86.50;;;;;;4972175;28;19922;-81
2022/10/01 03:29:59;;;;;;;;;;;11.60;86.90;;;;;;4984690;28;19921;-82
2022/10/01 03:32:25;;;;;;;;;;;11.50;86.50;;;;;;4993551;28;19914;-83
2022/10/01 03:34:50;;;;;;;;;;;11.60;86.50;;;;;;4972460;28;19928;-83
2022/10/01 03:37:16;;;;;;;;;;;11.50;86.70;;;;;;4986541;28;19914;-82
2022/10/01 03:39:41;;;;;;;;;;;11.50;86.70;;;;;;4975529;28;19922;-81
2022/10/01 03:42:07;;;;;;;;;;;11.60;86.80;;;;;;4985940;28;19921;-82
2022/10/01 03:44:32;;;;;;;;;;;11.60;86.80;;;;;;4990922;28;19914;-82
2022/10/01 03:46:58;;;;;;;;;;;11.50;86.90;;;;;;4987278;28;19917;-82
2022/10/01 03:49:24;;;;;;;;;;;11.50;87.70;;;;;;4991709;28;19921;-80
2022/10/01 03:51:49;;;;;;;;;;;11.60;87.40;;;;;;4981606;28;20336;-83
2022/10/01 03:54:16;;;;;;;;;;;11.50;87.30;;;;;;4991692;28;19922;-83
2022/10/01 03:56:42;;;;;;;;;;;11.60;87.40;;;;;;4993045;28;19921;-83
2022/10/01 03:59:08;;;;;;;;;;;11.60;87.40;;;;;;4987900;28;19921;-84
2022/10/01 04:01:34;;;;;;;;;;;11.60;87.80;;;;;;4988198;28;19921;-85
2022/10/01 04:03:59;;;;;;;;;;;11.60;88.00;;;;;;4987211;28;19941;-84
2022/10/01 04:06:25;;;;;;;;;;;11.60;88.10;;;;;;4970473;28;19929;-85
2022/10/01 04:08:50;;;;;;;;;;;11.50;88.30;;;;;;4968678;28;20477;-83
2022/10/01 04:11:16;;;;;;;;;;;11.50;88.80;;;;;;4982053;28;21725;-81
2022/10/01 04:13:41;;;;;;;;;;;11.60;88.20;;;;;;4986765;28;19921;-83
2022/10/01 04:16:07;;;;;;;;;;;11.50;88.30;;;;;;4984200;28;19918;-82
2022/10/01 04:18:32;;;;;;;;;;;11.50;87.90;;;;;;4994852;28;19972;-83
2022/10/01 04:20:58;;;;;;;;;;;11.50;88.00;;;;;;4989823;28;19944;-81
2022/10/01 04:23:24;;;;;;;;;;;11.40;87.70;;;;;;4973115;28;19921;-82
2022/10/01 04:25:49;;;;;;;;;;;11.40;88.00;;;;;;4984763;28;20290;-83
2022/10/01 04:28:15;;;;;;;;;;;11.50;88.20;;;;;;4988450;28;19917;-83
2022/10/01 04:30:42;;;;;;;;;;;11.50;88.10;;;;;;4992968;28;19984;-82
2022/10/01 04:33:10;;;;;;;;;;;11.50;88.20;;;;;;4991077;28;19949;-83
2022/10/01 04:35:36;;;;;;;;;;;11.50;87.80;;;;;;4991900;28;20293;-82
2022/10/01 04:38:03;;;;;;;;;;;11.60;87.90;;;;;;4977572;28;19921;-82
2022/10/01 04:40:30;;;;;;;;;;;11.60;88.10;;;;;;4991175;28;19976;-82
2022/10/01 04:42:56;;;;;;;;;;;11.60;87.90;;;;;;4992967;28;20285;-82
2022/10/01 04:45:21;;;;;;;;;;;11.50;87.80;;;;;;4987907;28;20370;-81
2022/10/01 04:47:47;;;;;;;;;;;11.50;87.80;;;;;;4994423;28;19910;-82
2022/10/01 04:50:14;;;;;;;;;;;11.50;87.40;;;;;;4986527;28;19925;-81
2022/10/01 04:52:40;;;;;;;;;;;11.60;87.40;;;;;;4996708;28;19914;-81
2022/10/01 04:55:05;;;;;;;;;;;11.60;87.10;;;;;;4992584;28;19924;-82
2022/10/01 04:57:31;;;;;;;;;;;11.60;87.50;;;;;;4967286;28;19997;-81
2022/10/01 04:59:57;;;;;;;;;;;11.60;87.40;;;;;;4992336;28;19918;-81
2022/10/01 05:02:22;;;;;;;;;;;11.60;87.50;;;;;;4988165;28;20044;-81
2022/10/01 05:04:48;;;;;;;;;;;11.60;87.60;;;;;;4992018;28;19909;-81
2022/10/01 05:07:13;;;;;;;;;;;11.50;87.80;;;;;;4992293;28;19916;-80
2022/10/01 05:09:38;;;;;;;;;;;11.50;87.70;;;;;;4995225;28;19914;-80
2022/10/01 05:12:05;;;;;;;;;;;11.60;87.90;;;;;;4973223;28;19928;-81
2022/10/01 05:14:30;;;;;;;;;;;11.60;87.70;;;;;;4975358;28;19914;-81
2022/10/01 05:16:56;;;;;;;;;;;11.60;87.40;;;;;;4993653;28;19961;-80
2022/10/01 05:19:22;;;;;;;;;;;11.60;87.30;;;;;;4980276;28;19922;-81
2022/10/01 05:21:47;;;;;;;;;;;11.70;87.40;;;;;;4994757;28;20377;-81
2022/10/01 05:24:15;;;;;;;;;;;11.60;88.00;;;;;;4976922;28;20087;-80
2022/10/01 05:26:40;;;;;;;;;;;11.70;87.50;;;;;;4970099;28;20393;-79
2022/10/01 05:29:05;;;;;;;;;;;11.70;87.70;;;;;;4994158;28;19977;-80
2022/10/01 05:31:31;;;;;;;;;;;11.90;87.10;;;;;;4975189;28;20389;-80
2022/10/01 05:33:57;;;;;;;;;;;11.90;87.00;;;;;;4976680;28;19964;-80
2022/10/01 05:36:22;;;;;;;;;;;11.90;87.30;;;;;;4974327;28;19985;-80
2022/10/01 05:38:48;;;;;;;;;;;11.90;87.50;;;;;;4992686;28;19913;-80
2022/10/01 05:41:13;;;;;;;;;;;11.90;87.20;;;;;;4969373;28;19996;-80
2022/10/01 05:43:38;;;;;;;;;;;11.80;87.50;;;;;;4986661;28;20351;-81
2022/10/01 05:46:04;;;;;;;;;;;11.80;88.00;;;;;;4973008;28;20304;-81
2022/10/01 05:48:33;;;;;;;;;;;11.80;88.10;;;;;;4991400;28;19910;-81
2022/10/01 05:50:58;;;;;;;;;;;11.80;88.40;;;;;;4966250;28;19923;-80
2022/10/01 05:53:24;;;;;;;;;;;11.70;88.60;;;;;;4980502;28;19914;-81
2022/10/01 05:55:50;;;;;;;;;;;11.70;88.80;;;;;;4988957;28;19921;-82
2022/10/01 05:58:15;;;;;;;;;;;11.70;89.00;;;;;;4985342;28;19914;-82
2022/10/01 06:00:41;;;;;;;;;;;11.60;89.40;;;;;;4979474;28;19918;-82
2022/10/01 06:03:07;;;;;;;;;;;11.60;89.40;;;;;;4967732;28;19968;-81
2022/10/01 06:05:34;;;;;;;;;;;11.70;89.60;;;;;;4982932;28;20328;-83
2022/10/01 06:07:59;;;;;;;;;;;11.70;89.60;;;;;;4987536;28;19999;-82
2022/10/01 06:10:26;;;;;;;;;;;11.70;89.80;;;;;;4982937;28;19913;-82
2022/10/01 06:12:57;;;;;;;;;;;11.60;89.80;;;;;;4979218;28;19918;-84
2022/10/01 06:15:22;;;;;;;;;;;11.70;90.10;;;;;;4971386;28;19921;-79
2022/10/01 06:17:47;;;;;;;;;;;11.70;90.20;;;;;;4963617;28;19922;-79
2022/10/01 06:20:14;;;;;;;;;;;11.70;90.20;;;;;;4981426;28;19934;-78
2022/10/01 06:22:41;;;;;;;;;;;11.70;90.30;;;;;;4991208;28;20285;-78
2022/10/01 06:25:08;;;;;;;;;;;11.70;90.20;;;;;;4986165;28;20001;-78
2022/10/01 06:27:33;;;;;;;;;;;11.70;90.30;;;;;;4966566;28;20041;-79
2022/10/01 06:29:58;;;;;;;;;;;11.70;90.30;;;;;;4984575;28;19954;-78
2022/10/01 06:32:24;;;;;;;;;;;11.70;90.30;;;;;;4985757;28;20122;-81
2022/10/01 06:34:49;;;;;;;;;;;11.70;90.40;;;;;;4994729;28;19991;-84
2022/10/01 06:37:15;;;;;;;;;;;11.80;90.60;;;;;;4992276;28;19997;-83
2022/10/01 06:39:40;;;;;;;;;;;11.80;90.40;;;;;;4991546;28;20001;-81
2022/10/01 06:42:06;;;;;;;;;;;11.80;90.50;;;;;;4980939;28;19929;-82
2022/10/01 06:44:31;;;;;;;;;;;11.70;90.60;;;;;;4983898;28;19951;-80
2022/10/01 06:46:57;;;;;;;;;;;11.80;90.40;;;;;;4977250;28;20305;-80
2022/10/01 06:49:22;;;;;;;;;;;11.80;90.50;;;;;;4996333;28;19921;-81
2022/10/01 06:54:32;;;;;;;;;;;11.90;90.40;;;;;;4996046;28;19949;-81
2022/10/01 06:56:57;;;;;;;;;;;12.00;90.50;;;;;;4982625;28;19922;-80
2022/10/01 06:59:23;;;;;;;;;;;11.90;90.40;;;;;;5003440;28;20045;-80
2022/10/01 07:01:49;;;;;;;;;;;12.00;90.70;;;;;;4970638;28;19918;-79
2022/10/01 07:04:14;;;;;;;;;;;12.00;90.20;;;;;;4981638;28;19968;-77
2022/10/01 07:06:40;;;;;;;;;;;12.00;90.10;;;;;;4965707;28;19917;-79
2022/10/01 07:09:05;;;;;;;;;;;12.00;89.90;;;;;;4978972;28;19918;-80
2022/10/01 07:11:31;;;;;;;;;;;12.00;90.00;;;;;;4995702;28;19920;-80
2022/10/01 07:13:56;;;;;;;;;;;12.00;90.20;;;;;;4979284;28;19941;-79
2022/10/01 07:16:22;;;;;;;;;;;12.10;90.10;;;;;;4969009;28;19945;-78
2022/10/01 07:18:47;;;;;;;;;;;12.10;89.90;;;;;;4964310;28;19965;-78
2022/10/01 07:21:13;;;;;;;;;;;12.10;90.10;;;;;;4993582;28;19921;-79
2022/10/01 07:23:38;;;;;;;;;;;12.10;90.10;;;;;;4995314;28;20346;-79
2022/10/01 07:26:04;;;;;;;;;;;12.10;89.80;;;;;;4997351;28;19941;-78
2022/10/01 07:28:30;;;;;;;;;;;12.20;90.10;;;;;;4974386;28;19914;-78
2022/10/01 07:31:05;;;;;;;;;;;12.30;90.00;;;;;;4979736;28;19964;-79
2022/10/01 07:33:31;;;;;;;;;;;12.30;89.80;;;;;;4993994;28;19920;-79
2022/10/01 07:35:59;;;;;;;;;;;12.30;89.80;;;;;;4977223;28;19922;-78
2022/10/01 07:38:24;;;;;;;;;;;12.30;90.00;;;;;;4976073;28;19918;-79
2022/10/01 07:40:50;;;;;;;;;;;12.20;90.20;;;;;;4991439;28;20012;-79
2022/10/01 07:43:16;;;;;;;;;;;12.30;90.30;;;;;;4977887;28;19938;-80
2022/10/01 07:45:43;;;;;;;;;;;12.30;89.90;;;;;;4995348;28;20191;-78
2022/10/01 07:48:08;;;;;;;;;;;12.40;90.00;;;;;;4986229;28;20000;-78
2022/10/01 07:50:34;;;;;;;;;;;12.40;90.20;;;;;;4997289;28;19930;-78
2022/10/01 07:52:59;;;;;;;;;;;12.40;90.10;;;;;;4992820;28;19913;-80
2022/10/01 07:55:26;;;;;;;;;;;12.40;90.20;;;;;;4996792;28;19914;-80
2022/10/01 07:57:52;;;;;;;;;;;12.40;90.30;;;;;;4981943;28;19922;-80
2022/10/01 08:00:18;;;;;;;;;;;12.50;90.30;;;;;;4992541;28;20337;-81
2022/10/01 08:02:48;;;;;;;;;;;12.50;90.30;;;;;;4988692;28;19921;-81
2022/10/01 08:05:17;;;;;;;;;;;12.50;90.20;;;;;;4994599;28;19914;-82
2022/10/01 08:07:43;;;;;;;;;;;12.50;90.10;;;;;;4986809;28;19929;-81
2022/10/01 08:10:08;;;;;;;;;;;12.50;90.20;;;;;;4995324;28;19914;-82
2022/10/01 08:12:34;;;;;;;;;;;12.50;90.20;;;;;;4974845;28;20004;-82
2022/10/01 08:15:01;;;;;;;;;;;12.60;90.10;;;;;;4992351;28;20386;-81
2022/10/01 08:17:27;;;;;;;;;;;12.70;90.10;;;;;;4994726;28;19924;-81
2022/10/01 08:19:52;;;;;;;;;;;12.70;90.00;;;;;;4997268;28;19922;-80
2022/10/01 08:22:18;;;;;;;;;;;12.80;90.10;;;;;;4985998;28;19909;-81
2022/10/01 08:24:43;;;;;;;;;;;12.80;90.10;;;;;;5000024;28;19920;-83
2022/10/01 08:27:09;;;;;;;;;;;12.90;90.20;;;;;;4971530;28;19957;-81
2022/10/01 08:29:34;;;;;;;;;;;12.90;90.10;;;;;;4975686;28;19936;-83
2022/10/01 08:32:00;;;;;;;;;;;13.10;90.10;;;;;;5000585;28;19979;-81
2022/10/01 08:34:25;;;;;;;;;;;13.20;89.90;;;;;;4982164;28;19914;-82
2022/10/01 08:36:51;;;;;;;;;;;13.20;89.40;;;;;;4997531;28;19914;-81
2022/10/01 08:39:16;;;;;;;;;;;13.20;89.80;;;;;;4976357;28;20401;-81
2022/10/01 08:41:49;;;;;;;;;;;13.30;90.00;;;;;;4976757;28;19925;-82
2022/10/01 08:44:20;;;;;;;;;;;13.30;89.80;;;;;;4973007;28;19918;-79
2022/10/01 08:46:46;;;;;;;;;;;13.50;89.60;;;;;;4957960;28;19969;-77
2022/10/01 08:49:12;;;;;;;;;;;13.50;89.30;;;;;;4986322;28;20401;-78
2022/10/01 08:51:51;;;;;;;;;;;13.60;89.50;;;;;;4961040;28;19976;-78
2022/10/01 08:54:28;;;;;;;;;;;13.70;89.30;;;;;;4980623;28;20325;-79
2022/10/01 08:56:55;;;;;;;;;;;13.90;89.30;;;;;;4985913;28;19934;-80
2022/10/01 08:59:39;;;;;;;;;;;14.00;89.30;;;;;;4962256;28;19991;-80
2022/10/01 09:02:17;;;;;;;;;;;14.10;89.20;;;;;;4963484;28;20302;-78
2022/10/01 09:04:43;;;;;;;;;;;14.20;88.90;;;;;;4967457;28;19925;-78
2022/10/01 09:07:22;;;;;;;;;;;14.30;88.70;;;;;;4978385;28;19914;-81
2022/10/01 09:09:58;;;;;;;;;;;14.40;88.20;;;;;;4983361;28;19953;-81
2022/10/01 09:12:42;;;;;;;;;;;14.40;88.10;;;;;;4978193;28;20440;-81
2022/10/01 09:15:15;;;;;;;;;;;14.50;88.20;;;;;;5001759;28;19922;-82
2022/10/01 09:17:52;;;;;;;;;;;14.50;87.90;;;;;;5008616;28;19918;-81
2022/10/01 09:20:23;;;;;;;;;;;14.50;87.90;;;;;;4998650;28;19960;-81
2022/10/01 09:22:54;;;;;;;;;;;14.60;87.50;;;;;;4999160;28;19941;-81
2022/10/01 09:25:24;;;;;;;;;;;14.60;87.40;;;;;;4986141;28;19921;-81
2022/10/01 09:27:50;;;;;;;;;;;14.50;87.40;;;;;;4999184;28;19961;-81
2022/10/01 09:30:20;;;;;;;;;;;14.50;87.80;;;;;;4997273;28;19922;-80
2022/10/01 09:33:10;;;;;;;;;;;14.50;87.70;;;;;;4992095;28;19914;-83
2022/10/01 09:35:36;;;;;;;;;;;14.60;87.80;;;;;;4999230;28;19922;-82
2022/10/01 09:38:21;;;;;;;;;;;14.70;87.70;;;;;;4994325;28;19921;-84
2022/10/01 09:40:53;;;;;;;;;;;14.80;87.30;;;;;;4994177;28;19918;-84
2022/10/01 09:43:21;;;;;;;;;;;14.80;86.90;;;;;;4973139;28;20329;-78
2022/10/01 09:45:47;;;;;;;;;;;14.90;87.20;;;;;;4984915;28;19976;-79
2022/10/01 09:48:18;;;;;;;;;;;15.00;86.80;;;;;;4984297;28;20409;-78
2022/10/01 09:50:54;;;;;;;;;;;15.00;86.80;;;;;;4984444;28;19914;-76
2022/10/01 09:53:22;;;;;;;;;;;15.10;86.60;;;;;;4981059;28;19918;-77
2022/10/01 09:55:53;;;;;;;;;;;14.90;86.40;;;;;;4990186;28;19921;-79
2022/10/01 09:58:22;;;;;;;;;;;15.00;86.90;;;;;;4979811;28;19917;-77
2022/10/01 10:00:50;;;;;;;;;;;15.10;86.70;;;;;;4988820;28;19924;-79
2022/10/01 10:03:23;;;;;;;;;;;15.00;86.70;;;;;;4975263;28;20305;-79
2022/10/01 10:05:49;;;;;;;;;;;15.10;86.50;;;;;;4991742;28;19925;-80
2022/10/01 10:08:22;;;;;;;;;;;15.10;86.80;;;;;;4977859;28;19921;-78
2022/10/01 10:10:54;;;;;;;;;;;15.10;86.70;;;;;;4969151;28;20039;-79
2022/10/01 10:13:30;;;;;;;;;;;15.20;86.50;;;;;;4965022;28;19945;-78
2022/10/01 10:15:56;;;;;;;;;;;15.00;87.00;;;;;;5036633;22;19964;-83
2022/10/01 10:18:59;;;;;;;;;;;14.90;87.40;;;;;;4990526;28;19997;-85
2022/10/01 10:21:26;;;;;;;;;;;14.80;87.90;;;;;;4986749;28;20012;-81
2022/10/01 10:23:53;;;;;;;;;;;14.70;88.20;;;;;;4990239;28;19922;-83
2022/10/01 10:26:20;;;;;;;;;;;14.60;88.30;;;;;;4984325;28;19932;-85
2022/10/01 10:28:46;;;;;;;;;;;14.60;88.50;;;;;;4986121;28;19964;-85
2022/10/01 10:31:14;;;;;;;;;;;14.70;88.60;;;;;;4987168;28;19956;-78
2022/10/01 10:33:56;;;;;;;;;;;14.90;88.30;;;;;;4981169;28;19925;-77
2022/10/01 10:36:25;;;;;;;;;;;15.10;88.00;;;;;;4982834;28;19925;-83
2022/10/01 10:38:52;;;;;;;;;;;15.20;87.20;;;;;;4990351;28;19921;-82
2022/10/01 10:41:21;;;;;;;;;;;15.20;85.90;;;;;;4990424;28;19949;-82
2022/10/01 10:43:47;;;;;;;;;;;15.20;86.30;;;;;;4986820;28;19937;-84
2022/10/01 10:46:21;;;;;;;;;;;15.10;86.40;;;;;;4983694;28;19921;-83
2022/10/01 10:48:53;;;;;;;;;;;15.10;86.30;;;;;;4992831;28;19918;-85
2022/10/01 10:51:18;;;;;;;;;;;15.30;86.60;;;;;;4990714;28;19914;-85
2022/10/01 10:53:44;;;;;;;;;;;15.30;86.50;;;;;;4990512;28;20136;-86
2022/10/01 10:56:17;;;;;;;;;;;15.30;86.80;;;;;;4986716;28;19914;-84
2022/10/01 10:58:44;;;;;;;;;;;15.30;87.50;;;;;;4984825;28;19918;-82
2022/10/01 11:01:16;;;;;;;;;;;15.30;87.30;;;;;;4988043;28;19954;-83
2022/10/01 11:03:47;;;;;;;;;;;15.40;86.80;;;;;;4976019;28;19924;-81
2022/10/01 11:06:13;;;;;;;;;;;15.50;86.70;;;;;;5011246;28;19913;-84
2022/10/01 11:08:39;;;;;;;;;;;15.50;86.90;;;;;;5010433;28;19913;-85
2022/10/01 11:11:20;;;;;;;;;;;15.50;86.70;;;;;;5013505;28;19922;-85
2022/10/01 11:13:58;;;;;;;;;;;15.60;87.10;;;;;;4996564;28;19914;-85
2022/10/01 11:16:32;;;;;;;;;;;15.70;86.30;;;;;;5001390;28;19918;-86
2022/10/01 11:19:15;;;;;;;;;;;15.80;85.70;;;;;;5004466;28;19917;-85
2022/10/01 11:21:40;;;;;;;;;;;15.80;85.60;;;;;;5009444;28;19913;-86
2022/10/01 11:24:16;;;;;;;;;;;15.80;85.90;;;;;;5009023;28;19920;-85
2022/10/01 11:26:41;;;;;;;;;;;15.90;85.70;;;;;;5000701;28;19913;-85
2022/10/01 11:29:10;;;;;;;;;;;16.00;85.90;;;;;;5005866;28;19920;-85
2022/10/01 11:31:48;;;;;;;;;;;16.10;84.60;;;;;;5004953;28;19921;-85
2022/10/01 11:34:27;;;;;;;;;;;16.30;83.80;;;;;;5009132;28;19914;-85
2022/10/01 11:36:54;;;;;;;;;;;16.50;83.70;;;;;;5003109;28;19949;-85
2022/10/01 11:39:22;;;;;;;;;;;16.50;82.10;;;;;;5008859;28;19914;-85
2022/10/01 11:41:49;;;;;;;;;;;16.60;81.80;;;;;;5008443;28;20051;-85
2022/10/01 11:44:26;;;;;;;;;;;16.60;82.00;;;;;;5010374;28;20052;-85
2022/10/01 11:46:53;;;;;;;;;;;16.80;81.50;;;;;;5011094;28;19914;-85
2022/10/01 11:49:25;;;;;;;;;;;16.70;81.60;;;;;;5012308;28;19902;-85
2022/10/01 11:52:03;;;;;;;;;;;16.80;81.60;;;;;;5019956;28;19917;-85
2022/10/01 11:54:32;;;;;;;;;;;16.90;79.30;;;;;;5012669;28;19949;-85
2022/10/01 11:59:48;;;;;;;;;;;16.90;79.80;;;;;;5013148;28;19948;-85
2022/10/01 12:02:27;;;;;;;;;;;16.90;80.70;;;;;;5010366;28;19913;-85
2022/10/01 12:04:57;;;;;;;;;;;17.00;79.80;;;;;;5005243;28;19913;-85
2022/10/01 12:07:28;;;;;;;;;;;16.90;79.40;;;;;;5009278;28;19914;-85
2022/10/01 12:09:53;;;;;;;;;;;17.00;79.20;;;;;;5007829;28;19913;-85
2022/10/01 12:12:26;;;;;;;;;;;16.90;77.20;;;;;;5009707;28;19933;-85
2022/10/01 12:15:00;;;;;;;;;;;16.80;77.30;;;;;;5010075;28;19914;-85
2022/10/01 12:17:34;;;;;;;;;;;16.70;78.50;;;;;;5010946;28;19914;-85
2022/10/01 12:20:01;;;;;;;;;;;16.60;79.40;;;;;;5011195;28;19921;-86
2022/10/01 12:22:34;;;;;;;;;;;16.40;80.60;;;;;;5006706;28;19913;-86
2022/10/01 12:25:00;;;;;;;;;;;16.10;81.70;;;;;;5000962;28;19916;-85
2022/10/01 12:27:37;;;;;;;;;;;15.80;82.80;;;;;;5004307;28;19957;-85
2022/10/01 12:30:02;;;;;;;;;;;15.40;81.30;;;;;;5006166;28;19973;-85
2022/10/01 12:32:37;;;;;;;;;;;15.10;82.70;;;;;;5007561;28;20386;-85
2022/10/01 12:35:03;;;;;;;;;;;15.00;81.60;;;;;;5007472;28;19910;-85
2022/10/01 12:37:41;;;;;;;;;;;14.80;82.40;;;;;;5007191;28;19917;-85
2022/10/01 12:40:19;;;;;;;;;;;14.70;83.10;;;;;;5005801;28;19917;-85
2022/10/01 12:42:50;;;;;;;;;;;14.80;84.40;;;;;;4997760;28;22219;-85
2022/10/01 12:45:24;;;;;;;;;;;15.00;84.60;;;;;;5001701;28;19972;-85
2022/10/01 12:47:50;;;;;;;;;;;15.30;85.00;;;;;;5002876;28;19918;-85
2022/10/01 12:50:21;;;;;;;;;;;15.50;83.30;;;;;;5001890;28;20441;-85
2022/10/01 12:52:56;;;;;;;;;;;15.60;84.30;;;;;;5003938;28;19973;-84
2022/10/01 12:55:44;;;;;;;;;;;15.60;85.50;;;;;;5008343;28;20319;-85
2022/10/01 12:58:25;;;;;;;;;;;15.90;86.00;;;;;;5002828;28;19949;-85
2022/10/01 13:00:59;;;;;;;;;;;16.20;85.70;;;;;;4995728;28;19920;-85
2022/10/01 13:03:43;;;;;;;;;;;16.40;84.70;;;;;;5003678;28;19937;-85
2022/10/01 13:06:25;;;;;;;;;;;16.30;84.40;;;;;;5000611;28;19917;-85
2022/10/01 13:09:00;;;;;;;;;;;16.40;83.90;;;;;;4999711;28;19938;-85
2022/10/01 13:11:44;;;;;;;;;;;16.30;84.00;;;;;;4997047;28;19914;-84
2022/10/01 13:14:11;;;;;;;;;;;16.20;84.70;;;;;;4993496;28;19952;-84
2022/10/01 13:16:42;;;;;;;;;;;16.20;83.70;;;;;;4993417;28;19924;-85
2022/10/01 13:19:28;;;;;;;;;;;16.10;83.50;;;;;;4998706;28;19938;-83
2022/10/01 13:21:59;;;;;;;;;;;16.10;83.30;;;;;;4998920;28;20399;-84
2022/10/01 13:24:25;;;;;;;;;;;15.60;81.50;;;;;;5000225;28;19949;-84
2022/10/01 13:26:52;;;;;;;;;;;15.40;82.00;;;;;;5007893;28;19910;-83
2022/10/01 13:29:17;;;;;;;;;;;15.10;81.00;;;;;;5009121;28;19910;-84
2022/10/01 13:31:57;;;;;;;;;;;15.10;81.50;;;;;;5015285;28;19992;-84
2022/10/01 13:34:24;;;;;;;;;;;15.00;81.30;;;;;;4997032;28;19914;-83
2022/10/01 13:36:50;;;;;;;;;;;15.10;82.20;;;;;;5003496;28;20319;-84
2022/10/01 13:39:20;;;;;;;;;;;15.20;82.00;;;;;;5002642;28;19921;-83
2022/10/01 13:41:46;;;;;;;;;;;15.40;82.70;;;;;;5000731;28;19914;-82
2022/10/01 13:44:21;;;;;;;;;;;15.70;83.00;;;;;;4990646;28;20373;-85
2022/10/01 13:46:52;;;;;;;;;;;16.20;81.20;;;;;;4998915;28;20386;-85
2022/10/01 13:49:28;;;;;;;;;;;16.50;83.20;;;;;;5004013;28;19913;-85
2022/10/01 13:51:54;;;;;;;;;;;16.70;80.80;;;;;;4999036;28;19953;-85
2022/10/01 13:54:27;;;;;;;;;;;16.90;80.30;;;;;;5001966;28;19921;-84
2022/10/01 13:56:53;;;;;;;;;;;16.70;80.10;;;;;;4997181;28;20361;-84
2022/10/01 13:59:29;;;;;;;;;;;16.50;80.60;;;;;;4994326;28;19914;-85
2022/10/01 14:01:54;;;;;;;;;;;16.40;80.90;;;;;;5002293;28;19921;-84
2022/10/01 14:04:22;;;;;;;;;;;16.10;80.50;;;;;;4994761;28;19992;-85
2022/10/01 14:06:55;;;;;;;;;;;15.90;81.30;;;;;;4988808;28;19957;-85
2022/10/01 14:09:28;;;;;;;;;;;15.80;81.40;;;;;;4996664;28;19909;-85
2022/10/01 14:17:30;;;;;;;;;;;15.70;72.50;;;;;;5009627;28;19921;-85
2022/10/01 14:19:56;;;;;;;;;;;15.70;73.10;;;;;;5020140;28;19938;-84
2022/10/01 14:22:41;;;;;;;;;;;15.60;72.50;;;;;;5009569;28;19956;-84
2022/10/01 14:25:19;;;;;;;;;;;15.60;72.60;;;;;;4978209;28;19911;-84
2022/10/01 14:28:00;;;;;;;;;;;15.60;73.90;;;;;;4976708;28;19946;-85
2022/10/01 14:30:45;;;;;;;;;;;15.50;73.20;;;;;;4990679;28;19940;-85
2022/10/01 14:33:29;;;;;;;;;;;15.60;73.60;;;;;;4996781;28;20253;-85
2022/10/01 14:36:09;;;;;;;;;;;15.70;73.80;;;;;;4996540;28;20001;-84
2022/10/01 14:38:35;;;;;;;;;;;15.70;74.60;;;;;;4995313;28;20379;-85